createdAt,value
2022-10-04T00:00:36.659Z,36.70
2022-10-04T00:03:26.093Z,36.90
2022-10-04T00:05:57.906Z,36.90
2022-10-04T00:08:53.517Z,36.80
2022-10-04T00:11:30.201Z,36.90
2022-10-04T00:14:07.062Z,36.90
2022-10-04T00:16:39.913Z,36.80
2022-10-04T00:19:16.217Z,36.60
2022-10-04T00:21:56.497Z,36.70
2022-10-04T00:24:24.952Z,36.30
2022-10-04T00:26:51.808Z,36.60
2022-10-04T00:29:32.359Z,36.60
2022-10-04T00:32:11.194Z,36.60
2022-10-04T00:34:54.684Z,36.50
2022-10-04T00:37:23.582Z,36.40
2022-10-04T00:40:01.423Z,36.30
2022-10-04T00:42:45.823Z,36.40
2022-10-04T00:45:28.708Z,36.50
2022-10-04T00:48:03.300Z,36.40
2022-10-04T00:50:45.983Z,36.40
2022-10-04T00:53:35.483Z,36.20
2022-10-04T00:56:06.487Z,36.10
2022-10-04T00:58:40.850Z,36.10
2022-10-04T01:01:09.058Z,36.00
2022-10-04T01:03:44.309Z,36.10
2022-10-04T01:06:15.063Z,36.10
2022-10-04T01:08:49.568Z,36.10
2022-10-04T01:11:42.988Z,36.20
2022-10-04T01:14:21.624Z,36.20
2022-10-04T01:16:48.818Z,36.20
2022-10-04T01:19:34.417Z,36.30
2022-10-04T01:22:12.081Z,36.30
2022-10-04T01:24:43.712Z,36.20
2022-10-04T01:27:36.852Z,36.10
2022-10-04T01:30:09.288Z,36.20
2022-10-04T01:32:38.566Z,36.40
2022-10-04T01:35:08.325Z,36.50
2022-10-04T01:37:35.502Z,36.60
2022-10-04T01:40:03.027Z,36.70
2022-10-04T01:42:36.772Z,36.70
2022-10-04T01:45:28.403Z,36.50
2022-10-04T01:48:05.637Z,36.50
2022-10-04T01:50:39.274Z,36.40
2022-10-04T01:53:28.930Z,36.40
2022-10-04T01:56:05.580Z,36.50
2022-10-04T01:58:51.087Z,36.60
2022-10-04T02:01:52.482Z,36.50
2022-10-04T02:04:22.638Z,36.50
2022-10-04T02:06:54.364Z,36.40
2022-10-04T02:09:35.038Z,36.50
2022-10-04T02:12:02.553Z,36.60
2022-10-04T02:14:36.054Z,36.50
2022-10-04T02:17:09.237Z,36.60
2022-10-04T02:19:41.016Z,36.40
2022-10-04T02:22:10.860Z,36.40
2022-10-04T02:24:42.432Z,36.40
2022-10-04T02:27:09.707Z,36.50
2022-10-04T02:29:36.746Z,36.60
2022-10-04T02:32:28.747Z,36.30
2022-10-04T02:34:56.481Z,36.00
2022-10-04T02:37:28.756Z,36.00
2022-10-04T02:40:30.283Z,36.10
2022-10-04T02:43:11.722Z,36.20
2022-10-04T02:45:42.518Z,36.00
2022-10-04T02:48:18.244Z,36.10
2022-10-04T02:50:50.637Z,36.10
2022-10-04T02:53:32.590Z,36.30
2022-10-04T02:55:59.528Z,36.40
2022-10-04T02:58:27.171Z,36.30
2022-10-04T03:01:00.300Z,36.00
2022-10-04T03:03:35.229Z,35.90
2022-10-04T03:06:18.117Z,35.70
2022-10-04T03:08:54.049Z,35.90
2022-10-04T03:11:25.041Z,35.90
2022-10-04T03:13:55.155Z,35.70
2022-10-04T03:16:22.564Z,35.80
2022-10-04T03:18:51.121Z,35.80
2022-10-04T03:21:20.255Z,35.80
2022-10-04T03:23:50.488Z,35.80
2022-10-04T03:26:29.601Z,35.80
2022-10-04T03:29:00.425Z,35.80
2022-10-04T03:31:28.758Z,35.90
2022-10-04T03:33:57.698Z,36.10
2022-10-04T03:36:26.543Z,36.10
2022-10-04T03:38:56.269Z,36.20
2022-10-04T03:41:25.883Z,36.20
2022-10-04T03:43:55.069Z,36.20
2022-10-04T03:46:24.171Z,36.30
2022-10-04T03:48:53.395Z,36.30
2022-10-04T03:51:24.320Z,35.90
2022-10-04T03:53:57.937Z,35.10
2022-10-04T03:56:33.144Z,35.30
2022-10-04T03:59:04.372Z,35.30
2022-10-04T04:01:50.666Z,35.60
2022-10-04T04:04:42.718Z,36.00
2022-10-04T04:07:21.197Z,36.20
2022-10-04T04:09:54.814Z,36.10
2022-10-04T04:12:27.270Z,36.00
2022-10-04T04:14:54.881Z,36.10
2022-10-04T04:17:27.739Z,36.20
2022-10-04T04:19:58.342Z,36.30
2022-10-04T04:22:31.440Z,36.30
2022-10-04T04:25:05.147Z,36.40
2022-10-04T04:27:35.524Z,36.40
2022-10-04T04:30:04.822Z,36.40
2022-10-04T04:32:42.010Z,36.50
2022-10-04T04:35:30.528Z,36.40
2022-10-04T04:38:07.065Z,36.40
2022-10-04T04:40:34.349Z,36.50
2022-10-04T04:43:03.208Z,36.50
2022-10-04T04:45:34.526Z,36.50
2022-10-04T04:48:03.726Z,36.50
2022-10-04T04:50:37.555Z,36.50
2022-10-04T04:53:20.721Z,36.60
2022-10-04T04:56:03.780Z,36.50
2022-10-04T04:58:38.989Z,36.30
2022-10-04T05:01:28.671Z,35.90
2022-10-04T05:04:12.714Z,35.70
2022-10-04T05:06:42.788Z,35.80
2022-10-04T05:09:45.383Z,35.80
2022-10-04T05:12:30.528Z,35.30
2022-10-04T05:14:57.505Z,35.20
2022-10-04T05:17:33.862Z,35.30
2022-10-04T05:20:02.826Z,34.90
2022-10-04T05:22:31.515Z,35.00
2022-10-04T05:25:07.734Z,35.00
2022-10-04T05:27:40.364Z,35.30
2022-10-04T05:33:50.285Z,35.00
2022-10-04T05:36:32.093Z,35.10
2022-10-04T05:39:11.430Z,34.90
2022-10-04T05:42:12.486Z,34.60
2022-10-04T05:44:52.083Z,34.90
2022-10-04T05:47:27.822Z,35.30
2022-10-04T05:50:01.178Z,35.10
2022-10-04T05:52:36.129Z,35.90
2022-10-04T05:55:24.241Z,36.50
2022-10-04T05:58:03.374Z,36.60
2022-10-04T06:00:36.517Z,36.90
2022-10-04T06:03:09.283Z,37.00
2022-10-04T06:05:55.691Z,37.00
2022-10-04T06:09:07.211Z,37.70
2022-10-04T06:11:52.596Z,38.20
2022-10-04T06:14:19.470Z,38.90
2022-10-04T06:17:20.986Z,39.40
2022-10-04T06:19:48.322Z,39.80
2022-10-04T06:22:23.456Z,40.20
2022-10-04T06:24:57.762Z,40.60
2022-10-04T06:27:37.027Z,41.10
2022-10-04T06:30:15.118Z,41.50
2022-10-04T06:33:06.952Z,41.80
2022-10-04T06:35:43.819Z,42.00
2022-10-04T06:38:32.939Z,42.20
2022-10-04T06:41:08.565Z,42.10
2022-10-04T06:43:54.494Z,42.30
2022-10-04T06:46:51.194Z,42.50
2022-10-04T06:49:20.994Z,42.90
2022-10-04T06:52:16.623Z,43.30
2022-10-04T06:55:19.526Z,43.80
2022-10-04T06:58:09.600Z,43.90
2022-10-04T07:01:05.237Z,44.00
2022-10-04T07:03:37.306Z,43.80
2022-10-04T07:06:07.894Z,43.70
2022-10-04T07:08:50.349Z,43.80
2022-10-04T07:11:46.917Z,43.90
2022-10-04T07:14:18.839Z,44.20
2022-10-04T07:16:57.105Z,44.30
2022-10-04T07:19:42.003Z,44.90
2022-10-04T07:22:21.804Z,45.40
2022-10-04T07:24:51.675Z,45.60
2022-10-04T07:27:46.182Z,45.60
2022-10-04T07:30:19.123Z,45.10
2022-10-04T07:32:50.695Z,44.40
2022-10-04T07:35:43.970Z,44.20
2022-10-04T07:38:14.051Z,43.70
2022-10-04T07:41:00.703Z,43.10
2022-10-04T07:43:32.164Z,42.70
2022-10-04T07:46:22.096Z,42.60
2022-10-04T07:48:49.464Z,42.60
2022-10-04T07:51:23.375Z,42.40
2022-10-04T07:53:54.509Z,42.80
2022-10-04T07:56:31.738Z,43.50
2022-10-04T07:59:25.992Z,43.60
2022-10-04T08:02:16.479Z,43.50
2022-10-04T08:04:55.678Z,43.30
2022-10-04T08:07:43.368Z,43.50
2022-10-04T08:10:35.120Z,43.80
2022-10-04T08:13:31.590Z,43.50
2022-10-04T08:16:35.762Z,44.40
2022-10-04T08:19:25.975Z,45.10
2022-10-04T08:22:02.648Z,44.50
2022-10-04T08:24:39.975Z,44.10
2022-10-04T08:27:30.214Z,43.70
2022-10-04T08:30:19.873Z,43.00
2022-10-04T08:33:08.172Z,42.30
2022-10-04T08:36:00.922Z,42.40
2022-10-04T08:38:46.916Z,42.20
2022-10-04T08:41:54.208Z,42.10
2022-10-04T08:44:33.072Z,42.80
2022-10-04T08:47:52.421Z,43.40
2022-10-04T08:50:28.372Z,42.90
2022-10-04T08:53:33.497Z,42.70
2022-10-04T08:56:25.149Z,42.30
2022-10-04T08:59:13.203Z,42.50
2022-10-04T09:02:15.959Z,42.90
2022-10-04T09:05:25.694Z,43.80
2022-10-04T09:08:29.779Z,44.40
2022-10-04T09:11:27.260Z,44.00
2022-10-04T09:14:00.296Z,42.10
2022-10-04T09:17:11.389Z,41.10
2022-10-04T09:20:37.872Z,40.50
2022-10-04T09:23:30.191Z,41.50
2022-10-04T09:26:20.799Z,43.50
2022-10-04T09:29:11.580Z,44.50
2022-10-04T09:31:52.531Z,45.00
2022-10-04T09:34:51.025Z,44.90
2022-10-04T09:37:27.002Z,44.70
2022-10-04T09:40:23.044Z,44.50
2022-10-04T09:42:56.035Z,43.90
2022-10-04T09:45:58.198Z,44.30
2022-10-04T09:48:31.224Z,44.20
2022-10-04T09:51:39.230Z,44.10
2022-10-04T09:54:33.080Z,44.10
2022-10-04T09:57:06.941Z,44.00
2022-10-04T10:00:29.545Z,43.60
2022-10-04T10:03:02.696Z,43.70
2022-10-04T10:05:45.049Z,42.90
2022-10-04T10:08:36.463Z,42.70
2022-10-04T10:11:40.932Z,42.50
2022-10-04T10:14:35.652Z,42.80
2022-10-04T10:17:27.057Z,43.20
2022-10-04T10:20:18.533Z,44.00
2022-10-04T10:23:13.510Z,44.40
2022-10-04T10:26:01.630Z,44.30
2022-10-04T10:28:55.092Z,44.40
2022-10-04T10:31:47.592Z,44.50
2022-10-04T10:34:29.917Z,44.90
2022-10-04T10:37:07.108Z,45.30
2022-10-04T10:39:43.143Z,45.00
2022-10-04T10:42:12.819Z,44.10
2022-10-04T10:45:17.389Z,43.40
2022-10-04T10:47:59.808Z,43.10
2022-10-04T10:50:30.164Z,43.70
2022-10-04T10:53:00.433Z,44.40
2022-10-04T10:55:49.570Z,44.30
2022-10-04T10:58:48.583Z,45.00
2022-10-04T11:01:53.775Z,45.30
2022-10-04T11:04:42.997Z,45.10
2022-10-04T11:07:27.716Z,44.90
2022-10-04T11:10:32.893Z,44.10
2022-10-04T11:13:12.168Z,42.60
2022-10-04T11:16:02.944Z,43.10
2022-10-04T11:18:57.184Z,43.80
2022-10-04T11:22:13.378Z,44.10
2022-10-04T11:25:07.848Z,44.60
2022-10-04T11:27:49.314Z,45.50
2022-10-04T11:30:30.293Z,46.40
2022-10-04T11:33:03.514Z,47.10
2022-10-04T11:36:01.349Z,47.10
2022-10-04T11:38:56.169Z,47.10
2022-10-04T11:41:44.297Z,45.20
2022-10-04T11:44:40.369Z,44.30
2022-10-04T11:47:29.367Z,43.80
2022-10-04T11:50:16.089Z,43.90
2022-10-04T11:52:49.847Z,44.10
2022-10-04T11:55:31.486Z,44.80
2022-10-04T11:58:11.996Z,45.00
2022-10-04T12:01:16.898Z,44.80
2022-10-04T12:04:28.390Z,45.30
2022-10-04T12:07:43.099Z,43.80
2022-10-04T12:10:40.052Z,43.00
2022-10-04T12:13:25.494Z,42.20
2022-10-04T12:16:28.021Z,41.00
2022-10-04T12:19:38.031Z,41.30
2022-10-04T12:22:39.491Z,42.00
2022-10-04T12:25:49.137Z,42.40
2022-10-04T12:29:05.080Z,41.50
2022-10-04T12:31:38.129Z,41.60
2022-10-04T12:34:15.147Z,41.50
2022-10-04T12:36:59.717Z,40.70
2022-10-04T12:39:57.257Z,41.20
2022-10-04T12:42:35.359Z,41.50
2022-10-04T12:45:16.272Z,42.40
2022-10-04T12:47:52.189Z,42.70
2022-10-04T12:50:50.493Z,41.60
2022-10-04T12:53:17.670Z,41.60
2022-10-04T12:56:17.345Z,41.70
2022-10-04T12:59:09.185Z,41.30
2022-10-04T13:02:14.286Z,41.30
2022-10-04T13:05:05.662Z,41.80
2022-10-04T13:07:39.384Z,42.40
2022-10-04T13:10:24.281Z,42.80
2022-10-04T13:13:13.091Z,41.40
2022-10-04T13:19:18.415Z,41.20
2022-10-04T13:21:58.159Z,40.50
2022-10-04T13:25:04.082Z,40.50
2022-10-04T13:27:51.186Z,39.70
2022-10-04T13:30:54.291Z,39.60
2022-10-04T13:34:04.464Z,39.60
2022-10-04T13:37:21.280Z,40.30
2022-10-04T13:39:56.925Z,39.80
2022-10-04T13:42:24.504Z,40.50
2022-10-04T13:45:36.152Z,41.20
2022-10-04T13:48:44.326Z,41.60
2022-10-04T13:51:25.802Z,42.90
2022-10-04T13:54:30.750Z,43.30
2022-10-04T13:57:15.767Z,43.50
2022-10-04T14:00:05.513Z,42.50
2022-10-04T14:02:46.880Z,41.90
2022-10-04T14:05:27.653Z,41.30
2022-10-04T14:08:18.101Z,41.00
2022-10-04T14:11:24.300Z,40.30
2022-10-04T14:14:29.644Z,40.10
2022-10-04T14:17:34.300Z,40.40
2022-10-04T14:20:27.589Z,40.50
2022-10-04T14:23:34.013Z,39.40
2022-10-04T14:26:47.336Z,39.30
2022-10-04T14:29:29.388Z,39.20
2022-10-04T14:32:23.334Z,39.60
2022-10-04T14:35:26.967Z,39.80
2022-10-04T14:38:26.921Z,39.80
2022-10-04T14:41:16.826Z,39.80
2022-10-04T14:44:21.664Z,39.90
2022-10-04T14:47:07.642Z,40.30
2022-10-04T14:50:05.938Z,40.70
2022-10-04T14:53:07.860Z,40.20
2022-10-04T14:55:50.524Z,40.50
2022-10-04T14:58:48.854Z,40.50
2022-10-04T15:01:24.222Z,40.10
2022-10-04T15:04:20.439Z,39.80
2022-10-04T15:06:52.691Z,38.80
2022-10-04T15:09:39.316Z,37.60
2022-10-04T15:12:58.607Z,37.80
2022-10-04T15:15:32.016Z,37.80
2022-10-04T15:18:24.548Z,37.40
2022-10-04T15:21:01.278Z,36.90
2022-10-04T15:23:33.133Z,35.60
2022-10-04T15:26:24.857Z,34.80
2022-10-04T15:28:53.133Z,34.80
2022-10-04T15:31:51.771Z,35.00
2022-10-04T15:35:09.796Z,34.90
2022-10-04T15:38:17.293Z,35.20
2022-10-04T15:41:10.173Z,35.40
2022-10-04T15:44:03.624Z,35.90
2022-10-04T15:46:49.391Z,36.10
2022-10-04T15:49:42.900Z,35.30
2022-10-04T15:52:39.609Z,35.70
2022-10-04T15:55:42.986Z,36.30
2022-10-04T15:58:52.848Z,36.70
2022-10-04T16:01:49.726Z,37.00
2022-10-04T16:04:33.982Z,37.10
2022-10-04T16:07:01.771Z,36.50
2022-10-04T16:10:02.711Z,36.70
2022-10-04T16:12:53.414Z,37.10
2022-10-04T16:15:36.622Z,37.20
2022-10-04T16:18:38.331Z,37.30
2022-10-04T16:21:37.337Z,37.40
2022-10-04T16:24:25.447Z,37.40
2022-10-04T16:26:55.635Z,37.50
2022-10-04T16:29:53.969Z,37.20
2022-10-04T16:32:40.388Z,37.40
2022-10-04T16:35:34.070Z,37.20
2022-10-04T16:38:25.102Z,37.00
2022-10-04T16:40:55.520Z,37.20
2022-10-04T16:43:31.203Z,37.50
2022-10-04T16:46:20.674Z,37.70
2022-10-04T16:49:29.861Z,38.00
2022-10-04T16:52:20.256Z,38.10
2022-10-04T16:55:17.389Z,38.20
2022-10-04T16:57:48.786Z,38.10
2022-10-04T17:00:39.969Z,38.00
2022-10-04T17:03:27.576Z,37.90
2022-10-04T17:06:18.049Z,37.90
2022-10-04T17:08:55.457Z,38.00
2022-10-04T17:11:48.011Z,38.00
2022-10-04T17:14:44.778Z,38.10
2022-10-04T17:18:04.258Z,38.20
2022-10-04T17:20:46.634Z,38.10
2022-10-04T17:23:49.944Z,37.70
2022-10-04T17:26:45.589Z,37.40
2022-10-04T17:29:17.582Z,36.20
2022-10-04T17:32:17.555Z,36.20
2022-10-04T17:35:07.102Z,35.60
2022-10-04T17:37:57.821Z,35.00
2022-10-04T17:40:52.971Z,34.80
2022-10-04T17:43:57.355Z,35.00
2022-10-04T17:46:55.430Z,35.10
2022-10-04T17:50:00.859Z,35.30
2022-10-04T17:52:53.750Z,34.60
2022-10-04T17:55:31.942Z,34.90
2022-10-04T17:58:07.796Z,34.80
2022-10-04T18:01:09.036Z,34.30
2022-10-04T18:03:57.843Z,34.60
2022-10-04T18:07:02.867Z,34.50
2022-10-04T18:09:45.880Z,33.50
2022-10-04T18:12:52.539Z,32.80
2022-10-04T18:15:53.475Z,32.70
2022-10-04T18:18:28.538Z,32.10
2022-10-04T18:21:06.860Z,32.30
2022-10-04T18:23:40.505Z,32.00
2022-10-04T18:26:34.005Z,32.10
2022-10-04T18:29:08.360Z,32.40
2022-10-04T18:31:42.321Z,32.40
2022-10-04T18:34:17.649Z,32.70
2022-10-04T18:37:06.109Z,32.90
2022-10-04T18:39:53.260Z,32.80
2022-10-04T18:42:39.161Z,33.30
2022-10-04T18:45:29.838Z,33.70
2022-10-04T18:48:06.269Z,34.20
2022-10-04T18:50:44.479Z,34.60
2022-10-04T18:53:44.222Z,34.30
2022-10-04T18:56:13.622Z,33.90
2022-10-04T18:59:22.458Z,32.80
2022-10-04T19:02:03.095Z,32.80
2022-10-04T19:05:00.468Z,33.00
2022-10-04T19:08:04.925Z,33.10
2022-10-04T19:10:45.902Z,33.50
2022-10-04T19:13:35.831Z,33.90
2022-10-04T19:16:31.526Z,34.40
2022-10-04T19:19:29.836Z,34.00
2022-10-04T19:22:27.236Z,33.40
2022-10-04T19:25:34.573Z,33.20
2022-10-04T19:28:24.766Z,33.40
2022-10-04T19:31:30.759Z,32.90
2022-10-04T19:34:11.240Z,33.10
2022-10-04T19:37:08.090Z,32.80
2022-10-04T19:39:59.404Z,32.60
2022-10-04T19:42:52.945Z,32.70
2022-10-04T19:46:17.980Z,32.80
2022-10-04T19:48:56.982Z,33.20
2022-10-04T19:52:01.408Z,33.30
2022-10-04T19:54:41.028Z,33.50
2022-10-04T19:57:16.136Z,34.00
2022-10-04T19:59:49.238Z,34.30
2022-10-04T20:02:18.693Z,34.40
2022-10-04T20:04:50.880Z,34.50
2022-10-04T20:07:27.903Z,34.20
2022-10-04T20:10:21.386Z,33.70
2022-10-04T20:13:36.596Z,33.90
2022-10-04T20:16:08.861Z,34.40
2022-10-04T20:18:43.810Z,34.60
2022-10-04T20:21:31.686Z,34.50
2022-10-04T20:23:59.201Z,34.50
2022-10-04T20:26:56.924Z,34.20
2022-10-04T20:29:39.411Z,33.90
2022-10-04T20:32:13.222Z,33.10
2022-10-04T20:34:40.108Z,32.40
2022-10-04T20:37:11.174Z,32.20
2022-10-04T20:39:53.230Z,32.60
2022-10-04T20:42:36.283Z,33.00
2022-10-04T20:45:25.989Z,33.50
2022-10-04T20:47:59.973Z,34.10
2022-10-04T20:50:35.803Z,34.30
2022-10-04T20:53:20.373Z,34.60
2022-10-04T20:55:54.838Z,34.60
2022-10-04T20:58:35.307Z,34.90
2022-10-04T21:04:15.524Z,35.10
2022-10-04T21:07:15.419Z,34.40
2022-10-04T21:09:42.571Z,34.00
2022-10-04T21:12:29.302Z,33.70
2022-10-04T21:15:05.835Z,34.00
2022-10-04T21:17:32.681Z,34.30
2022-10-04T21:19:59.575Z,33.80
2022-10-04T21:22:26.533Z,33.60
2022-10-04T21:24:56.306Z,33.30
2022-10-04T21:27:32.745Z,32.80
2022-10-04T21:30:02.231Z,33.00
2022-10-04T21:32:34.962Z,33.00
2022-10-04T21:35:03.737Z,33.00
2022-10-04T21:37:31.216Z,32.50
2022-10-04T21:39:58.409Z,32.40
2022-10-04T21:42:26.882Z,32.50
2022-10-04T21:44:59.309Z,32.90
2022-10-04T21:47:26.263Z,33.50
2022-10-04T21:49:53.992Z,33.40
2022-10-04T21:52:21.132Z,32.90
2022-10-04T21:54:48.036Z,32.90
2022-10-04T21:57:15.107Z,32.90
2022-10-04T21:59:42.213Z,32.80
2022-10-04T22:02:09.754Z,33.10
2022-10-04T22:04:38.283Z,33.10
2022-10-04T22:07:05.394Z,33.20
2022-10-04T22:09:34.965Z,33.20
2022-10-04T22:12:02.174Z,33.20
2022-10-04T22:14:29.146Z,33.20
2022-10-04T22:16:56.216Z,33.00
2022-10-04T22:19:23.216Z,32.90
2022-10-04T22:21:50.164Z,32.90
2022-10-04T22:24:19.897Z,33.50
2022-10-04T22:26:47.471Z,33.50
2022-10-04T22:29:16.505Z,33.70
2022-10-04T22:31:49.389Z,33.50
2022-10-04T22:34:19.284Z,33.60
2022-10-04T22:36:50.310Z,33.50
2022-10-04T22:39:18.216Z,33.40
2022-10-04T22:41:47.927Z,33.50
2022-10-04T22:44:19.093Z,33.80
2022-10-04T22:46:48.324Z,34.00
2022-10-04T22:49:22.234Z,33.60
2022-10-04T22:51:51.186Z,33.20
2022-10-04T22:54:37.988Z,33.50
2022-10-04T22:57:04.949Z,33.80
2022-10-04T22:59:39.162Z,33.80
2022-10-04T23:02:12.973Z,33.90
2022-10-04T23:04:41.391Z,33.70
2022-10-04T23:07:08.442Z,33.50
2022-10-04T23:09:37.836Z,33.50
2022-10-04T23:12:08.749Z,32.90
2022-10-04T23:14:38.018Z,32.90
2022-10-04T23:17:27.359Z,33.10
2022-10-04T23:20:01.707Z,33.40
2022-10-04T23:22:30.811Z,33.40
2022-10-04T23:24:58.135Z,33.10
2022-10-04T23:27:25.314Z,32.20
2022-10-04T23:30:03.990Z,32.00
2022-10-04T23:32:33.750Z,32.20
2022-10-04T23:35:01.850Z,31.90
2022-10-04T23:37:34.021Z,31.30
2022-10-04T23:40:01.237Z,31.30
2022-10-04T23:42:32.284Z,31.60
2022-10-04T23:45:00.327Z,32.50
2022-10-04T23:47:37.429Z,32.80
2022-10-04T23:50:36.410Z,33.40
2022-10-04T23:53:06.645Z,33.40
2022-10-04T23:55:44.011Z,33.50
2022-10-04T23:58:16.878Z,33.80
